Time;durP1;ratioP1;P1;durP2;ratioP2;P2;SDS_P1;SDS_P2;PMS_P1;PMS_P2;Temp;Humidity;BMP_temperature;BMP_pressure;BME280_temperature;BME280_humidity;BME280_pressure;Samples;Min_cycle;Max_cycle;Signal;HPM_P1;HPM_P2
2020/12/12 00:00:17;;;;;;;64.88;31.98;;;;;;;3.35;45.77;101646.41;4940171;29;20055;-90
2020/12/12 00:02:44;;;;;;;59.53;31.48;;;;;;;2.50;46.82;101560.44;4939362;28;20496;-91
2020/12/12 00:05:11;;;;;;;59.05;31.23;;;;;;;3.14;46.61;101688.06;4939361;29;20030;-91
2020/12/12 00:07:38;;;;;;;58.45;34.63;;;;;;;3.06;47.04;101683.50;4936488;29;20035;-87
2020/12/12 00:10:05;;;;;;;61.15;30.33;;;;;;;2.67;47.07;101605.84;4938058;29;20019;-89
2020/12/12 00:12:32;;;;;;;71.28;31.77;;;;;;;3.08;47.70;101702.47;4945986;28;20125;-87
2020/12/12 00:14:59;;;;;;;76.40;29.98;;;;;;;2.24;47.36;101553.34;4937604;29;20027;-86
2020/12/12 00:17:26;;;;;;;64.35;33.20;;;;;;;2.57;47.89;101597.00;4949116;28;20054;-89
2020/12/12 00:19:53;;;;;;;68.82;33.17;;;;;;;3.38;47.73;101713.63;4941260;28;20085;-90
2020/12/12 00:22:20;;;;;;;70.65;32.90;;;;;;;2.87;48.13;101644.56;4946077;28;20051;-90
2020/12/12 00:24:47;;;;;;;80.25;32.05;;;;;;;2.89;48.00;101649.03;4938388;29;22151;-92
2020/12/12 00:27:14;;;;;;;71.40;37.03;;;;;;;2.79;48.40;101636.38;4947015;28;20031;-88
2020/12/12 00:29:41;;;;;;;72.32;34.35;;;;;;;2.48;48.35;101603.53;4940127;28;20078;-91
2020/12/12 00:32:08;;;;;;;69.53;32.33;;;;;;;3.39;48.20;101707.97;4938906;29;20034;-89
2020/12/12 00:34:35;;;;;;;64.28;32.42;;;;;;;3.05;47.81;101670.84;4937514;29;20035;-92
2020/12/12 00:37:02;;;;;;;64.72;32.75;;;;;;;3.54;47.49;101693.53;4940758;28;20031;-91
2020/12/12 00:39:29;;;;;;;61.63;30.38;;;;;;;3.17;46.98;101629.38;4942807;28;20031;-92
2020/12/12 00:41:56;;;;;;;61.88;31.92;;;;;;;2.86;47.98;101610.03;4940066;29;20031;-91
2020/12/12 00:44:23;;;;;;;69.28;32.55;;;;;;;2.98;47.69;101632.38;4940888;29;20028;-91
2020/12/12 00:46:55;;;;;;;58.80;31.05;;;;;;;3.47;47.63;101706.22;4942201;28;20082;-96
2020/12/12 00:49:22;;;;;;;61.67;33.00;;;;;;;2.45;47.65;101534.47;4954072;28;20030;-96
2020/12/12 00:51:49;;;;;;;73.53;36.85;;;;;;;3.67;47.33;101706.63;4947265;28;20035;-90
2020/12/12 00:54:16;;;;;;;61.25;32.92;;;;;;;3.44;47.00;101712.06;4942287;29;20086;-91
2020/12/12 00:56:43;;;;;;;68.93;33.10;;;;;;;2.59;47.70;101579.38;4940522;29;20035;-91
2020/12/12 00:59:10;;;;;;;57.53;30.98;;;;;;;3.08;46.96;101609.44;4938986;29;20041;-93
2020/12/12 01:01:37;;;;;;;58.42;29.30;;;;;;;3.62;46.20;101715.38;4940627;29;20086;-91
2020/12/12 01:04:04;;;;;;;66.05;32.13;;;;;;;3.51;46.34;101711.16;4939009;29;20385;-87
2020/12/12 01:06:31;;;;;;;73.78;36.45;;;;;;;2.73;45.91;101587.84;4939845;28;20370;-88
2020/12/12 01:08:58;;;;;;;59.28;30.50;;;;;;;1.87;46.75;101492.81;4937067;28;20090;-93
2020/12/12 01:11:26;;;;;;;67.70;34.25;;;;;;;2.62;46.90;101634.75;4944262;28;20033;-95
2020/12/12 01:13:53;;;;;;;65.30;31.85;;;;;;;2.52;47.22;101599.38;4938497;29;20055;-92
2020/12/12 01:16:20;;;;;;;60.53;31.25;;;;;;;2.60;46.73;101583.81;4942890;28;20038;-87
2020/12/12 01:18:47;;;;;;;53.10;27.40;;;;;;;3.90;44.05;101755.97;4935425;29;20038;-87
2020/12/12 01:21:18;;;;;;;60.72;28.13;;;;;;;3.89;43.68;101729.59;4935522;28;20094;-86
2020/12/12 01:23:46;;;;;;;46.53;24.80;;;;;;;3.12;41.06;101578.81;4934949;28;20035;-87
2020/12/12 01:26:14;;;;;;;47.50;24.45;;;;;;;2.28;41.27;101516.44;4946034;28;20023;-89
2020/12/12 01:28:41;;;;;;;47.70;24.70;;;;;;;3.77;40.46;101744.75;4932233;28;20031;-89
2020/12/12 01:31:13;;;;;;;43.88;21.45;;;;;;;2.64;37.28;101539.72;4933197;28;20047;-88
2020/12/12 01:33:40;;;;;;;41.88;19.88;;;;;;;3.70;37.80;101698.06;4938399;28;20039;-88
2020/12/12 01:36:08;;;;;;;44.97;22.85;;;;;;;3.93;39.58;101736.41;4931422;28;20031;-89
2020/12/12 01:38:36;;;;;;;42.35;18.35;;;;;;;3.39;36.23;101694.28;4928161;29;20036;-91
2020/12/12 01:41:03;;;;;;;36.47;17.65;;;;;;;2.79;35.62;101621.88;4932756;28;20031;-91
2020/12/12 01:43:30;;;;;;;28.00;13.10;;;;;;;3.03;33.75;101745.91;4948103;28;20062;-91
2020/12/12 01:45:58;;;;;;;38.40;19.95;;;;;;;3.36;37.34;101737.59;4952148;28;20035;-89
2020/12/12 01:48:25;;;;;;;39.08;18.52;;;;;;;1.36;36.27;101445.63;4950823;28;20031;-89
2020/12/12 01:50:52;;;;;;;36.85;17.27;;;;;;;2.79;36.11;101651.97;4969095;28;20039;-90
2020/12/12 01:53:19;;;;;;;37.78;20.73;;;;;;;3.19;35.81;101698.47;4952140;28;20023;-91
2020/12/12 01:55:48;;;;;;;38.42;19.55;;;;;;;3.45;35.10;101739.25;4952705;29;20035;-91
2020/12/12 01:58:16;;;;;;;38.30;18.98;;;;;;;2.71;36.43;101607.19;4955010;29;20023;-89
2020/12/12 02:00:44;;;;;;;45.30;18.85;;;;;;;3.40;35.32;101674.06;4954816;28;20047;-88
2020/12/12 02:03:12;;;;;;;33.72;17.77;;;;;;;3.68;34.56;101742.06;4947464;28;20019;-90
2020/12/12 02:05:39;;;;;;;38.70;18.88;;;;;;;2.45;35.21;101648.44;4953167;28;20031;-90
2020/12/12 02:08:18;;;;;;;35.88;17.13;;;;;;;2.93;35.76;101688.66;4934439;28;20485;-91
2020/12/12 02:10:47;;;;;;;47.95;19.15;;;;;;;3.32;35.12;101750.78;4942649;28;20119;-92
2020/12/12 02:13:16;;;;;;;32.63;15.68;;;;;;;3.39;34.96;101746.28;4935848;28;20019;-88
2020/12/12 02:15:43;;;;;;;47.30;20.08;;;;;;;2.85;35.16;101657.56;4954706;28;20106;-90
2020/12/12 02:18:21;;;;;;;40.95;18.60;;;;;;;3.32;35.55;101756.25;4952166;28;20065;-90
2020/12/12 02:20:56;;;;;;;29.80;15.27;;;;;;;2.87;34.21;101663.72;4948839;28;20027;-89
2020/12/12 02:23:24;;;;;;;39.47;18.45;;;;;;;2.81;35.83;101626.16;4936715;29;20058;-86
2020/12/12 02:25:51;;;;;;;46.20;18.50;;;;;;;4.06;34.79;101743.19;4948282;28;20035;-88
2020/12/12 02:28:22;;;;;;;38.63;18.67;;;;;;;3.64;35.09;101691.38;4936663;28;20027;-91
2020/12/12 02:30:49;;;;;;;32.75;17.80;;;;;;;2.44;35.18;101452.69;4935678;29;20090;-88
2020/12/12 02:33:16;;;;;;;44.65;19.60;;;;;;;2.83;36.09;101602.19;4935766;29;20027;-88
2020/12/12 02:35:43;;;;;;;54.88;22.88;;;;;;;2.37;37.01;101563.75;4935401;28;20027;-86
2020/12/12 02:38:10;;;;;;;41.22;22.17;;;;;;;2.85;37.57;101670.41;4949132;28;20035;-89
2020/12/12 02:40:37;;;;;;;53.40;23.23;;;;;;;1.54;38.88;101471.88;4953860;28;20031;-87
2020/12/12 02:43:09;;;;;;;38.47;19.23;;;;;;;1.73;37.82;101484.31;4951644;28;20098;-87
2020/12/12 02:45:36;;;;;;;44.05;21.23;;;;;;;3.01;36.96;101658.53;4961927;28;20030;-89
2020/12/12 02:48:03;;;;;;;40.00;22.85;;;;;;;2.86;38.05;101595.53;4943796;28;20162;-86
2020/12/12 02:50:30;;;;;;;34.00;19.83;;;;;;;3.77;37.39;101707.25;4941133;28;20028;-87
2020/12/12 02:52:57;;;;;;;42.97;22.10;;;;;;;3.90;36.77;101689.34;4937850;29;20038;-86
2020/12/12 02:55:24;;;;;;;44.03;19.98;;;;;;;2.62;37.35;101519.91;4937994;28;20134;-86
2020/12/12 02:57:51;;;;;;;46.53;21.42;;;;;;;1.89;37.36;101384.25;4937803;28;20129;-84
2020/12/12 03:00:21;;;;;;;50.25;23.45;;;;;;;4.09;37.60;101719.00;4951706;28;20067;-79
2020/12/12 03:02:47;;;;;;;49.72;21.45;;;;;;;2.99;38.88;101627.78;4938189;29;20027;-90
2020/12/12 03:05:15;;;;;;;52.83;21.92;;;;;;;2.86;38.88;101547.13;4936722;29;20493;-87
2020/12/12 03:07:53;;;;;;;40.83;21.48;;;;;;;2.52;38.80;101471.78;4935799;28;20032;-88
2020/12/12 03:10:20;;;;;;;45.92;23.35;;;;;;;3.99;38.50;101671.84;4937314;29;20039;-87
2020/12/12 03:12:47;;;;;;;38.95;21.30;;;;;;;3.65;38.04;101588.19;4935373;29;20464;-86
2020/12/12 03:15:15;;;;;;;45.60;20.25;;;;;;;3.55;38.90;101589.28;4953989;28;20027;-86
2020/12/12 03:17:42;;;;;;;40.53;22.13;;;;;;;3.95;37.53;101589.16;4936609;28;20058;-84
2020/12/12 03:20:09;;;;;;;33.95;19.48;;;;;;;3.24;37.69;101455.22;4936730;29;20027;-86
2020/12/12 03:22:36;;;;;;;33.67;17.75;;;;;;;3.79;35.81;101561.88;4936332;28;20027;-84
2020/12/12 03:25:04;;;;;;;27.65;15.25;;;;;;;4.24;35.40;101688.91;4937638;28;20053;-86
2020/12/12 03:27:31;;;;;;;35.38;17.88;;;;;;;3.75;34.81;101546.84;4954587;28;20066;-85
2020/12/12 03:29:58;;;;;;;29.92;15.73;;;;;;;4.40;34.77;101651.41;4936047;29;20119;-88
2020/12/12 03:32:34;;;;;;;38.60;16.85;;;;;;;4.18;34.72;101615.66;4939372;28;20035;-87
2020/12/12 03:35:01;;;;;;;33.20;17.40;;;;;;;4.61;34.64;101699.19;4936076;28;20070;-83
2020/12/12 03:37:28;;;;;;;40.60;18.52;;;;;;;2.69;34.20;101397.84;4938375;29;20039;-87
2020/12/12 03:39:55;;;;;;;30.88;14.05;;;;;;;2.86;34.55;101445.91;4955028;28;20243;-85
2020/12/12 03:42:21;;;;;;;28.42;15.55;;;;;;;3.48;34.06;101609.34;4941463;29;20042;-87
2020/12/12 03:44:49;;;;;;;31.20;15.75;;;;;;;3.56;33.69;101535.34;4947834;29;20030;-86
2020/12/12 03:47:15;;;;;;;32.40;14.70;;;;;;;3.83;33.45;101585.13;4954195;28;20050;-86
2020/12/12 03:49:43;;;;;;;26.80;14.27;;;;;;;4.53;32.75;101664.50;4934670;28;20027;-86
2020/12/12 03:52:09;;;;;;;24.98;16.75;;;;;;;2.70;32.75;101331.19;4934175;28;20110;-90
2020/12/12 03:54:36;;;;;;;39.40;18.63;;;;;;;4.49;31.18;101581.75;4940128;29;20039;-88
2020/12/12 03:57:04;;;;;;;33.38;17.85;;;;;;;4.73;31.71;101658.44;4946435;28;20031;-91
2020/12/12 03:59:31;;;;;;;28.83;14.77;;;;;;;4.47;31.68;101641.38;4940620;28;20095;-92
2020/12/12 04:01:58;;;;;;;26.73;15.25;;;;;;;4.58;31.46;101641.97;4941653;28;20034;-85
2020/12/12 04:04:25;;;;;;;30.40;17.85;;;;;;;4.34;31.18;101583.63;4956109;28;20019;-90
2020/12/12 04:06:53;;;;;;;28.00;15.00;;;;;;;3.75;30.82;101478.38;4932890;29;20071;-88
2020/12/12 04:09:20;;;;;;;25.33;15.20;;;;;;;4.17;30.91;101559.09;4938747;29;20023;-88
2020/12/12 04:11:47;;;;;;;26.50;14.27;;;;;;;3.68;31.73;101544.84;4953722;28;20042;-86
2020/12/12 04:14:14;;;;;;;30.05;15.18;;;;;;;3.29;31.64;101452.78;4936325;28;20051;-85
2020/12/12 04:16:41;;;;;;;29.77;15.35;;;;;;;1.94;32.23;101282.69;4936653;29;20050;-90
2020/12/12 04:19:09;;;;;;;28.17;15.23;;;;;;;3.90;31.93;101613.50;4938237;28;20062;-86
2020/12/12 04:21:36;;;;;;;27.52;14.30;;;;;;;3.65;32.08;101555.31;4937106;28;20027;-87
2020/12/12 04:24:03;;;;;;;27.52;15.70;;;;;;;2.63;32.23;101360.28;4953583;28;20027;-83
2020/12/12 04:26:30;;;;;;;31.90;15.32;;;;;;;3.35;32.68;101533.31;4951734;28;20042;-88
2020/12/12 04:28:57;;;;;;;28.27;15.38;;;;;;;2.17;32.63;101330.03;4953558;28;20027;-86
2020/12/12 04:31:24;;;;;;;28.48;17.15;;;;;;;3.53;33.13;101560.38;4933642;29;20091;-86
2020/12/12 04:33:51;;;;;;;30.23;15.63;;;;;;;3.18;32.53;101484.19;4944397;28;20048;-86
2020/12/12 04:36:18;;;;;;;30.88;15.98;;;;;;;3.80;33.06;101582.78;4924346;29;20528;-91
2020/12/12 04:38:49;;;;;;;28.17;15.65;;;;;;;3.61;33.13;101529.34;4936316;29;20125;-88
2020/12/12 04:41:17;;;;;;;35.38;17.77;;;;;;;3.23;33.32;101453.50;4934430;29;20031;-90
2020/12/12 04:43:44;;;;;;;32.28;17.08;;;;;;;3.26;33.43;101440.31;4933704;28;20035;-89
2020/12/12 04:46:18;;;;;;;25.00;15.32;;;;;;;4.59;33.35;101625.31;4933359;29;20035;-88
2020/12/12 04:48:45;;;;;;;28.05;14.70;;;;;;;4.31;33.28;101575.75;4928333;29;20035;-83
2020/12/12 04:51:16;;;;;;;28.70;15.02;;;;;;;3.39;33.30;101512.75;4933560;29;20031;-83
2020/12/12 04:53:44;;;;;;;32.72;15.15;;;;;;;3.08;33.46;101402.31;4930893;29;20065;-83
2020/12/12 04:56:22;;;;;;;31.98;17.88;;;;;;;4.04;33.00;101550.69;4942742;28;20748;-86
2020/12/12 04:58:51;;;;;;;29.50;16.60;;;;;;;3.94;33.45;101497.00;4930968;29;20036;-86
2020/12/12 05:01:21;;;;;;;30.40;14.00;;;;;;;4.54;33.51;101580.31;4930065;29;20031;-81
2020/12/12 05:03:48;;;;;;;25.38;13.82;;;;;;;4.89;33.08;101606.09;4932543;29;20024;-85
2020/12/12 05:06:15;;;;;;;24.50;14.18;;;;;;;4.51;32.82;101549.47;4931678;29;20039;-84
2020/12/12 05:08:42;;;;;;;30.90;14.18;;;;;;;3.41;32.71;101358.22;4931250;29;20473;-84
2020/12/12 05:11:09;;;;;;;25.42;14.90;;;;;;;4.37;32.34;101547.59;4931940;29;20494;-85
2020/12/12 05:13:36;;;;;;;26.65;14.45;;;;;;;3.26;32.39;101425.75;4933197;28;20071;-84
2020/12/12 05:16:03;;;;;;;25.98;13.73;;;;;;;4.72;31.73;101591.75;4932166;28;20106;-83
2020/12/12 05:18:30;;;;;;;28.52;16.52;;;;;;;3.41;31.70;101358.22;4930744;29;20040;-86
2020/12/12 05:20:57;;;;;;;23.92;13.40;;;;;;;4.44;32.24;101567.72;4933110;28;20034;-82
2020/12/12 05:23:25;;;;;;;32.45;17.27;;;;;;;4.28;32.52;101499.38;4931574;28;20024;-83
2020/12/12 05:25:55;;;;;;;26.63;14.68;;;;;;;4.06;32.01;101471.88;4931094;29;20032;-85
2020/12/12 05:28:23;;;;;;;20.48;11.52;;;;;;;4.79;31.56;101573.50;4929861;29;20071;-85
2020/12/12 05:30:52;;;;;;;25.88;13.50;;;;;;;4.18;31.65;101475.88;4940898;28;20041;-83
2020/12/12 05:33:21;;;;;;;23.65;12.65;;;;;;;4.28;31.10;101493.91;4933023;29;20035;-84
2020/12/12 05:35:49;;;;;;;24.48;12.68;;;;;;;4.33;31.49;101516.13;4951226;28;20023;-83
2020/12/12 05:38:17;;;;;;;23.52;13.13;;;;;;;3.61;31.85;101362.31;4936195;28;20118;-84
2020/12/12 05:40:49;;;;;;;26.05;13.68;;;;;;;5.06;31.36;101559.25;4937779;29;20524;-84
2020/12/12 05:43:16;;;;;;;28.40;12.63;;;;;;;3.73;33.24;101388.16;4934992;29;20059;-84
2020/12/12 05:45:43;;;;;;;29.23;13.55;;;;;;;4.31;33.02;101471.56;4932330;29;20054;-83
2020/12/12 05:48:14;;;;;;;28.25;13.05;;;;;;;4.14;34.24;101512.91;4950380;28;20026;-88
2020/12/12 05:50:42;;;;;;;26.58;14.80;;;;;;;3.97;35.03;101493.91;4932835;29;20098;-84
2020/12/12 05:53:09;;;;;;;27.90;13.27;;;;;;;4.30;34.46;101511.88;4947669;28;20122;-86
2020/12/12 05:55:39;;;;;;;19.73;11.85;;;;;;;4.75;34.55;101594.09;4950576;28;20027;-85
2020/12/12 05:58:06;;;;;;;23.05;15.30;;;;;;;4.49;34.69;101529.63;4932260;29;20043;-81
2020/12/12 06:00:33;;;;;;;24.92;13.55;;;;;;;4.18;35.04;101521.59;4930675;29;20485;-86
2020/12/12 06:03:06;;;;;;;24.73;11.95;;;;;;;3.44;35.66;101427.34;4933246;28;20038;-86
2020/12/12 06:05:34;;;;;;;24.48;13.75;;;;;;;4.39;35.28;101551.00;4933505;29;20505;-86
2020/12/12 06:08:04;;;;;;;31.73;13.60;;;;;;;4.26;36.01;101546.16;4951636;28;20070;-83
2020/12/12 06:10:33;;;;;;;26.52;14.73;;;;;;;4.30;35.56;101549.38;4934809;28;20031;-82
2020/12/12 06:13:05;;;;;;;26.73;13.05;;;;;;;2.88;36.52;101369.16;4956264;28;20035;-83
2020/12/12 06:15:42;;;;;;;23.70;13.40;;;;;;;4.09;36.95;101546.34;4938407;28;20042;-82
2020/12/12 06:18:32;;;;;;;24.08;13.00;;;;;;;4.09;36.14;101534.53;4937280;29;20138;-81
2020/12/12 06:21:06;;;;;;;24.75;13.13;;;;;;;3.27;35.86;101425.59;4952090;28;20027;-84
2020/12/12 06:23:40;;;;;;;24.00;13.02;;;;;;;3.55;36.52;101467.94;4952656;28;20043;-86
2020/12/12 06:26:08;;;;;;;24.70;12.60;;;;;;;3.89;36.56;101535.09;4952250;28;20023;-82
2020/12/12 06:29:01;;;;;;;26.35;13.00;;;;;;;3.81;36.75;101513.25;4937341;28;20089;-85
2020/12/12 06:31:34;;;;;;;27.02;13.85;;;;;;;3.88;35.78;101500.50;4932807;28;20122;-87
2020/12/12 06:34:00;;;;;;;32.67;15.40;;;;;;;4.41;36.41;101620.22;4935891;28;20027;-85
2020/12/12 06:36:33;;;;;;;27.48;12.80;;;;;;;3.94;36.68;101549.06;4953718;28;20069;-88
2020/12/12 06:39:18;;;;;;;26.80;13.40;;;;;;;4.18;37.04;101593.72;4936259;28;20027;-86
2020/12/12 06:41:46;;;;;;;25.48;13.50;;;;;;;3.81;37.27;101507.78;4942708;28;20437;-85
2020/12/12 06:44:29;;;;;;;27.58;14.13;;;;;;;4.14;36.90;101540.31;4936411;28;20038;-85
2020/12/12 06:46:56;;;;;;;32.95;14.40;;;;;;;3.70;36.56;101474.28;4935551;28;20438;-85
2020/12/12 06:49:23;;;;;;;27.42;12.98;;;;;;;4.25;36.89;101571.88;4941360;28;20067;-84
2020/12/12 06:51:52;;;;;;;30.98;13.65;;;;;;;3.32;36.47;101414.09;4936201;28;20070;-85
2020/12/12 06:54:20;;;;;;;28.80;14.68;;;;;;;3.12;36.79;101368.09;4953355;28;20027;-83
2020/12/12 06:56:48;;;;;;;33.90;13.55;;;;;;;4.71;36.53;101600.16;4935215;28;20054;-82
2020/12/12 06:59:29;;;;;;;31.30;16.38;;;;;;;4.46;36.58;101598.56;4935683;29;20031;-84
2020/12/12 07:02:01;;;;;;;23.67;14.27;;;;;;;3.84;36.92;101493.69;4952579;28;20031;-83
2020/12/12 07:04:32;;;;;;;29.10;14.48;;;;;;;2.70;37.05;101333.91;4935761;29;20027;-84
2020/12/12 07:07:07;;;;;;;31.67;15.10;;;;;;;3.80;37.35;101511.56;4933877;29;20086;-83
2020/12/12 07:09:35;;;;;;;29.63;14.32;;;;;;;4.22;37.93;101597.78;4951461;28;20485;-81
2020/12/12 07:12:04;;;;;;;22.58;13.43;;;;;;;3.72;37.28;101495.16;4949899;28;20037;-82
2020/12/12 07:14:32;;;;;;;28.20;15.95;;;;;;;4.10;37.82;101585.59;4934666;29;20035;-81
2020/12/12 07:17:01;;;;;;;34.05;14.82;;;;;;;3.69;36.73;101494.50;4952923;29;20023;-84
2020/12/12 07:19:36;;;;;;;35.55;16.13;;;;;;;4.27;36.25;101596.38;4951503;28;20031;-81
2020/12/12 07:22:05;;;;;;;30.20;15.30;;;;;;;4.46;36.39;101593.06;4935425;28;20090;-82
2020/12/12 07:24:33;;;;;;;29.98;13.52;;;;;;;2.62;36.00;101302.03;4952093;28;20400;-83
2020/12/12 07:27:02;;;;;;;29.77;14.70;;;;;;;3.89;35.95;101532.34;4934007;28;20037;-84
2020/12/12 07:29:30;;;;;;;24.40;13.50;;;;;;;2.97;35.20;101379.00;4935702;28;20027;-81
2020/12/12 07:31:59;;;;;;;30.95;13.45;;;;;;;3.24;35.36;101430.59;4932250;28;20057;-81
2020/12/12 07:34:27;;;;;;;25.90;13.68;;;;;;;2.87;35.66;101349.16;4948587;28;20035;-83
2020/12/12 07:37:03;;;;;;;23.38;15.00;;;;;;;2.65;35.29;101298.06;4953752;28;20062;-81
2020/12/12 07:39:41;;;;;;;34.67;15.63;;;;;;;3.77;35.11;101499.06;4952012;28;20023;-83
2020/12/12 07:42:10;;;;;;;21.40;13.05;;;;;;;4.10;35.51;101559.00;4934470;28;20031;-84
2020/12/12 07:44:40;;;;;;;30.27;12.90;;;;;;;3.32;35.50;101435.97;4948227;28;20012;-85
2020/12/12 07:47:14;;;;;;;25.67;14.88;;;;;;;2.72;34.67;101337.31;4934201;29;20054;-91
2020/12/12 07:49:41;;;;;;;24.77;12.23;;;;;;;1.62;35.05;101174.34;4936019;28;20047;-89
2020/12/12 07:52:13;;;;;;;24.85;11.90;;;;;;;2.32;34.96;101277.34;4933950;29;20039;-84
2020/12/12 07:54:56;;;;;;;28.50;14.38;;;;;;;3.29;35.22;101425.41;4929119;29;20060;-85
2020/12/12 07:57:23;;;;;;;23.70;12.85;;;;;;;3.91;35.54;101543.97;4932747;29;20031;-85
2020/12/12 07:59:50;;;;;;;26.90;15.73;;;;;;;3.87;36.32;101548.09;4933897;28;20047;-81
2020/12/12 08:02:17;;;;;;;21.42;13.05;;;;;;;3.25;36.55;101462.38;4934027;28;20027;-85
2020/12/12 08:04:44;;;;;;;26.13;13.45;;;;;;;3.90;36.93;101574.28;4931451;28;20042;-82
2020/12/12 08:07:19;;;;;;;27.83;14.77;;;;;;;2.48;36.72;101302.84;4953250;28;20028;-92
2020/12/12 08:09:48;;;;;;;24.30;12.13;;;;;;;2.77;36.77;101362.22;4935345;28;20065;-86
2020/12/12 08:12:28;;;;;;;24.38;13.57;;;;;;;2.44;37.40;101335.16;4932368;29;20093;-86
2020/12/12 08:15:15;;;;;;;26.40;13.38;;;;;;;3.84;37.41;101559.44;4931840;29;20043;-79
2020/12/12 08:17:42;;;;;;;24.23;13.23;;;;;;;3.72;37.81;101522.56;4944334;28;20489;-84
2020/12/12 08:20:17;;;;;;;24.48;13.68;;;;;;;3.77;37.77;101522.84;4952565;28;20035;-85
2020/12/12 08:22:48;;;;;;;20.10;13.20;;;;;;;3.92;37.85;101550.31;4929272;29;20046;-92
2020/12/12 08:25:14;;;;;;;;;;;;;;;3.90;37.94;101555.97;4933181;28;20086;-85
2020/12/12 08:27:41;;;;;;;21.10;12.95;;;;;;;2.96;37.81;101403.78;4936545;28;20403;-87
2020/12/12 08:30:08;;;;;;;27.02;13.60;;;;;;;2.54;38.77;101386.81;4938568;29;20073;-85
2020/12/12 08:32:46;;;;;;;20.17;12.52;;;;;;;3.81;38.89;101557.06;4959721;28;20125;-87
2020/12/12 08:35:19;;;;;;;22.73;12.13;;;;;;;3.77;38.82;101555.72;4937588;29;20073;-92
2020/12/12 08:37:59;;;;;;;29.88;12.88;;;;;;;2.16;39.50;101316.53;4935968;29;20039;-86
2020/12/12 08:40:53;;;;;;;23.63;12.55;;;;;;;3.59;39.52;101561.53;4933714;28;20044;-89
2020/12/12 08:43:20;;;;;;;18.52;11.70;;;;;;;3.53;38.88;101585.88;4932358;28;20035;-90
2020/12/12 08:46:00;;;;;;;23.77;11.90;;;;;;;3.60;38.24;101558.63;4930706;29;20028;-90
2020/12/12 08:48:35;;;;;;;21.02;11.23;;;;;;;3.63;39.13;101562.88;4936952;29;20099;-92
2020/12/12 08:51:11;;;;;;;24.48;11.57;;;;;;;3.54;39.73;101597.69;4947271;28;20552;-94
2020/12/12 08:53:46;;;;;;;27.38;12.57;;;;;;;3.27;39.12;101523.28;4934620;28;20035;-90
2020/12/12 08:56:15;;;;;;;20.15;10.73;;;;;;;2.29;39.48;101395.19;4942232;29;20512;-91
2020/12/12 08:58:50;;;;;;;28.67;10.75;;;;;;;3.77;38.97;101563.94;4938212;29;20066;-89
2020/12/12 09:01:19;;;;;;;20.60;12.02;;;;;;;3.75;38.57;101583.28;4935447;28;20090;-91
2020/12/12 09:03:58;;;;;;;23.67;12.02;;;;;;;3.59;39.03;101569.75;4935920;29;20027;-89
2020/12/12 09:06:28;;;;;;;33.00;11.07;;;;;;;2.70;38.45;101446.91;4937154;29;20059;-84
2020/12/12 09:09:13;;;;;;;19.92;10.75;;;;;;;3.53;38.39;101564.00;4932676;29;20031;-85
2020/12/12 09:12:08;;;;;;;26.52;12.27;;;;;;;3.54;38.25;101559.34;4936838;29;20034;-89
2020/12/12 09:14:37;;;;;;;17.90;9.95;;;;;;;2.58;38.79;101424.59;4941438;28;20046;-94
2020/12/12 09:17:07;;;;;;;28.35;13.52;;;;;;;2.91;39.03;101477.34;4936960;29;20039;-92
2020/12/12 09:19:43;;;;;;;28.42;12.30;;;;;;;2.01;39.57;101339.16;4933106;29;20035;-86
2020/12/12 09:22:12;;;;;;;26.30;13.80;;;;;;;1.99;38.51;101294.78;4950129;28;20393;-87
2020/12/12 09:24:42;;;;;;;19.85;9.85;;;;;;;2.20;38.15;101312.41;4936024;28;20122;-88
2020/12/12 09:27:12;;;;;;;24.20;11.23;;;;;;;3.24;37.02;101490.78;4934929;28;20366;-86
2020/12/12 09:29:38;;;;;;;;;;;;;;;3.72;37.55;101567.25;4931876;28;20134;-85
2020/12/12 09:32:05;;;;;;;19.63;11.27;;;;;;;2.03;37.80;101307.03;4949879;28;19965;-85
2020/12/12 09:34:32;;;;;;;20.58;11.73;;;;;;;2.72;37.72;101417.47;4949091;28;20023;-83
2020/12/12 09:36:59;;;;;;;19.33;10.45;;;;;;;2.50;37.87;101333.56;4930734;28;20118;-85
2020/12/12 09:39:26;;;;;;;21.05;12.20;;;;;;;1.56;38.56;101234.25;4947957;28;20058;-83
2020/12/12 09:42:00;;;;;;;26.98;11.48;;;;;;;2.60;37.76;101422.50;4931186;28;20030;-85
2020/12/12 09:44:27;;;;;;;23.98;11.27;;;;;;;3.17;37.01;101482.47;4932594;28;20125;-90
2020/12/12 09:46:55;;;;;;;26.88;12.88;;;;;;;3.58;37.58;101571.66;4936860;28;20094;-87
2020/12/12 09:49:22;;;;;;;22.17;12.57;;;;;;;2.40;37.78;101344.72;4934759;29;20039;-86
2020/12/12 09:51:49;;;;;;;18.20;10.48;;;;;;;3.47;37.54;101503.63;4934795;29;20110;-86
2020/12/12 09:54:16;;;;;;;24.05;11.75;;;;;;;2.38;36.77;101341.34;4954491;28;20054;-85
2020/12/12 09:56:43;;;;;;;31.40;13.93;;;;;;;1.89;36.76;101261.38;4940514;28;20098;-86
2020/12/12 09:59:10;;;;;;;20.85;10.15;;;;;;;3.01;36.83;101445.13;4942611;29;21180;-90
2020/12/12 10:01:38;;;;;;;23.92;11.38;;;;;;;3.79;37.15;101550.91;4939624;29;20039;-87
2020/12/12 10:04:05;;;;;;;22.95;11.48;;;;;;;3.47;37.07;101525.50;4946977;28;20035;-87
2020/12/12 10:06:32;;;;;;;22.52;11.32;;;;;;;2.74;37.43;101393.53;4934934;28;20054;-89
2020/12/12 10:08:59;;;;;;;23.15;10.88;;;;;;;3.74;37.35;101569.81;4940159;28;20034;-89
2020/12/12 10:11:26;;;;;;;28.67;12.85;;;;;;;1.74;38.21;101305.81;4933005;28;20163;-89
2020/12/12 10:13:53;;;;;;;24.35;11.57;;;;;;;2.13;38.60;101363.34;4937368;28;20031;-87
2020/12/12 10:16:23;;;;;;;25.95;12.02;;;;;;;1.99;38.23;101335.75;4938303;29;20172;-88
2020/12/12 10:18:50;;;;;;;23.83;12.18;;;;;;;3.40;38.13;101547.31;4938331;28;20066;-88
2020/12/12 10:21:17;;;;;;;18.48;11.63;;;;;;;1.50;37.67;101206.66;4937184;28;20036;-85
2020/12/12 10:23:44;;;;;;;19.75;10.45;;;;;;;3.05;37.53;101430.06;4937774;29;20175;-86
2020/12/12 10:26:11;;;;;;;27.13;10.00;;;;;;;3.15;37.76;101430.66;4938421;28;20022;-85
2020/12/12 10:28:38;;;;;;;25.75;12.77;;;;;;;3.41;38.42;101541.63;4951913;28;20409;-86
2020/12/12 10:31:05;;;;;;;30.05;13.18;;;;;;;2.79;38.02;101434.00;4937723;28;20055;-91
2020/12/12 10:33:32;;;;;;;20.52;11.30;;;;;;;3.66;37.51;101538.72;4934885;28;20042;-87
2020/12/12 10:35:59;;;;;;;24.73;13.85;;;;;;;3.07;38.18;101435.34;4941250;28;20039;-86
2020/12/12 10:38:26;;;;;;;24.45;12.00;;;;;;;3.04;38.38;101422.03;4962526;28;20046;-87
2020/12/12 10:41:01;;;;;;;19.95;12.57;;;;;;;4.05;38.74;101560.63;4950169;29;20027;-90
2020/12/12 10:43:28;;;;;;;23.25;11.15;;;;;;;2.19;37.74;101288.84;4938113;29;20035;-92
2020/12/12 10:45:55;;;;;;;23.75;13.40;;;;;;;2.57;38.43;101376.38;4944620;28;20055;-90
2020/12/12 10:48:24;;;;;;;21.30;12.25;;;;;;;3.41;38.92;101541.63;4942986;29;20097;-89
2020/12/12 10:50:52;;;;;;;22.83;13.23;;;;;;;2.66;39.10;101409.16;4939268;29;20041;-91
2020/12/12 10:53:19;;;;;;;28.90;14.73;;;;;;;3.03;39.44;101496.94;4937198;28;20062;-89
2020/12/12 10:55:46;;;;;;;16.73;11.35;;;;;;;3.62;39.51;101567.50;4939288;29;20140;-89
2020/12/12 10:58:13;;;;;;;29.88;14.05;;;;;;;1.60;39.53;101219.25;4937383;29;20137;-88
2020/12/12 11:00:46;;;;;;;19.30;9.82;;;;;;;3.83;39.07;101568.69;4938338;29;20110;-90
2020/12/12 11:03:13;;;;;;;26.85;13.07;;;;;;;2.94;39.62;101466.03;4936611;29;20031;-91
2020/12/12 11:05:40;;;;;;;34.75;12.25;;;;;;;3.60;39.02;101512.06;4935394;29;20066;-88
2020/12/12 11:08:07;;;;;;;20.10;11.38;;;;;;;2.86;39.22;101360.28;4939276;28;20023;-90
2020/12/12 11:10:34;;;;;;;22.55;11.07;;;;;;;4.12;40.39;101550.59;4937336;29;20062;-88
2020/12/12 11:13:01;;;;;;;24.77;11.23;;;;;;;4.11;42.04;101557.13;4936501;28;20086;-86
2020/12/12 11:15:28;;;;;;;21.77;12.50;;;;;;;2.73;39.43;101344.47;4936117;29;20023;-87
2020/12/12 11:17:55;;;;;;;20.10;10.90;;;;;;;4.03;38.97;101524.34;4937093;29;20031;-87
2020/12/12 11:20:22;;;;;;;23.10;11.95;;;;;;;3.93;39.68;101532.81;4936938;29;20560;-88
2020/12/12 11:22:49;;;;;;;25.50;12.80;;;;;;;4.25;39.47;101544.47;4938553;29;20460;-88
2020/12/12 11:25:17;;;;;;;32.00;12.57;;;;;;;3.64;38.87;101458.59;4937407;29;20023;-86